createdAt,value
2023-01-18T00:02:22.172Z,-2.10
2023-01-18T00:04:51.143Z,-2.10
2023-01-18T00:07:19.587Z,-2.20
2023-01-18T00:09:48.095Z,-2.20
2023-01-18T00:12:16.901Z,-2.20
2023-01-18T00:14:46.717Z,-2.20
2023-01-18T00:17:15.462Z,-2.20
2023-01-18T00:19:44.167Z,-2.30
2023-01-18T00:22:12.904Z,-2.30
2023-01-18T00:24:41.324Z,-2.30
2023-01-18T00:27:11.096Z,-2.40
2023-01-18T00:29:39.455Z,-2.30
2023-01-18T00:32:09.464Z,-2.30
2023-01-18T00:34:38.051Z,-2.40
2023-01-18T00:37:06.463Z,-2.40
2023-01-18T00:39:35.144Z,-2.40
2023-01-18T00:42:25.708Z,-2.40
2023-01-18T00:44:56.613Z,-2.40
2023-01-18T00:47:27.185Z,-2.40
2023-01-18T00:49:55.724Z,-2.40
2023-01-18T00:52:24.378Z,-2.40
2023-01-18T00:54:52.693Z,-2.50
2023-01-18T00:57:21.477Z,-2.50
2023-01-18T00:59:51.104Z,-2.50
2023-01-18T01:02:19.829Z,-2.50
2023-01-18T01:05:07.124Z,-2.50
2023-01-18T01:07:35.772Z,-2.50
2023-01-18T01:10:09.530Z,-2.50
2023-01-18T01:12:56.523Z,-2.50
2023-01-18T01:15:42.520Z,-2.50
2023-01-18T01:18:31.237Z,-2.60
2023-01-18T01:21:21.986Z,-2.50
2023-01-18T01:24:09.882Z,-2.50
2023-01-18T01:26:38.456Z,-2.50
2023-01-18T01:29:09.056Z,-2.50
2023-01-18T01:31:38.771Z,-2.60
2023-01-18T01:34:07.282Z,-2.60
2023-01-18T01:36:37.320Z,-2.60
2023-01-18T01:39:07.266Z,-2.60
2023-01-18T01:41:36.737Z,-2.60
2023-01-18T01:44:43.548Z,-2.60
2023-01-18T01:47:18.558Z,-2.60
2023-01-18T01:49:49.808Z,-2.60
2023-01-18T01:52:24.676Z,-2.50
2023-01-18T01:55:01.754Z,-2.50
2023-01-18T01:57:33.079Z,-2.50
2023-01-18T02:00:10.570Z,-2.50
2023-01-18T02:02:43.797Z,-2.40
2023-01-18T02:05:16.678Z,-2.40
2023-01-18T02:07:46.823Z,-2.40
2023-01-18T02:10:16.801Z,-2.40
2023-01-18T02:12:48.752Z,-2.40
2023-01-18T02:15:20.026Z,-2.30
2023-01-18T02:18:14.869Z,-2.30
2023-01-18T02:21:07.511Z,-2.30
2023-01-18T02:24:02.305Z,-2.30
2023-01-18T02:26:54.475Z,-2.20
2023-01-18T02:29:36.358Z,-2.20
2023-01-18T02:32:26.119Z,-2.20
2023-01-18T02:35:01.923Z,-2.20
2023-01-18T02:37:43.657Z,-2.20
2023-01-18T02:40:25.668Z,-2.20
2023-01-18T02:43:11.871Z,-2.20
2023-01-18T02:46:02.587Z,-2.20
2023-01-18T02:48:35.650Z,-2.20
2023-01-18T02:51:05.054Z,-2.30
2023-01-18T02:53:37.175Z,-2.30
2023-01-18T02:56:12.149Z,-2.30
2023-01-18T02:58:45.109Z,-2.30
2023-01-18T03:01:22.530Z,-2.30
2023-01-18T03:03:56.035Z,-2.30
2023-01-18T03:06:28.033Z,-2.40
2023-01-18T03:08:58.313Z,-2.40
2023-01-18T03:11:37.642Z,-2.40
2023-01-18T03:14:18.344Z,-2.40
2023-01-18T03:16:59.405Z,-2.40
2023-01-18T03:19:57.362Z,-2.40
2023-01-18T03:22:42.858Z,-2.50
2023-01-18T03:25:14.773Z,-2.40
2023-01-18T03:28:03.361Z,-2.50
2023-01-18T03:30:51.095Z,-2.50
2023-01-18T03:33:44.366Z,-2.50
2023-01-18T03:36:20.558Z,-2.50
2023-01-18T03:38:54.665Z,-2.50
2023-01-18T03:41:27.364Z,-2.50
2023-01-18T03:43:59.655Z,-2.50
2023-01-18T03:46:30.483Z,-2.50
2023-01-18T03:49:01.928Z,-2.60
2023-01-18T03:51:42.168Z,-2.60
2023-01-18T03:54:16.627Z,-2.60
2023-01-18T03:56:49.952Z,-2.60
2023-01-18T03:59:19.593Z,-2.60
2023-01-18T04:01:48.922Z,-2.60
2023-01-18T04:04:19.348Z,-2.60
2023-01-18T04:06:47.764Z,-2.60
2023-01-18T04:09:16.721Z,-2.60
2023-01-18T04:11:45.433Z,-2.60
2023-01-18T04:14:14.071Z,-2.60
2023-01-18T04:16:42.508Z,-2.70
2023-01-18T04:19:10.846Z,-2.70
2023-01-18T04:21:44.539Z,-2.70
2023-01-18T04:24:14.505Z,-2.70
2023-01-18T04:26:44.049Z,-2.70
2023-01-18T04:29:12.505Z,-2.70
2023-01-18T04:31:41.489Z,-2.80
2023-01-18T04:34:10.151Z,-2.80
2023-01-18T04:36:38.526Z,-2.80
2023-01-18T04:39:08.395Z,-2.80
2023-01-18T04:41:37.840Z,-2.80
2023-01-18T04:44:07.351Z,-2.80
2023-01-18T04:46:38.310Z,-2.80
2023-01-18T04:49:12.074Z,-2.80
2023-01-18T04:51:41.025Z,-2.80
2023-01-18T04:54:21.531Z,-2.80
2023-01-18T04:56:51.871Z,-2.80
2023-01-18T04:59:22.584Z,-2.80
2023-01-18T05:01:52.404Z,-2.90
2023-01-18T05:04:21.697Z,-2.90
2023-01-18T05:06:53.676Z,-2.90
2023-01-18T05:09:25.376Z,-2.90
2023-01-18T05:11:55.396Z,-2.90
2023-01-18T05:14:24.251Z,-2.90
2023-01-18T05:16:52.968Z,-2.90
2023-01-18T05:19:22.936Z,-2.90
2023-01-18T05:21:53.090Z,-2.90
2023-01-18T05:24:25.349Z,-2.90
2023-01-18T05:26:53.797Z,-2.90
2023-01-18T05:29:22.576Z,-2.80
2023-01-18T05:31:51.303Z,-2.80
2023-01-18T05:34:20.434Z,-2.80
2023-01-18T05:36:49.390Z,-2.80
2023-01-18T05:39:18.037Z,-2.80
2023-01-18T05:41:48.431Z,-2.80
2023-01-18T05:44:17.706Z,-2.80
2023-01-18T05:46:50.115Z,-2.90
2023-01-18T05:49:19.048Z,-2.90
2023-01-18T05:51:47.391Z,-2.90
2023-01-18T05:54:15.987Z,-2.90
2023-01-18T05:56:47.366Z,-3.00
2023-01-18T05:59:16.060Z,-2.90
2023-01-18T06:01:44.309Z,-3.00
2023-01-18T06:04:15.541Z,-3.00
2023-01-18T06:06:43.882Z,-3.00
2023-01-18T06:09:12.408Z,-3.00
2023-01-18T06:11:41.950Z,-3.00
2023-01-18T06:14:13.725Z,-3.00
2023-01-18T06:16:43.287Z,-3.00
2023-01-18T06:19:13.307Z,-3.00
2023-01-18T06:21:41.675Z,-3.10
2023-01-18T06:24:11.853Z,-3.10
2023-01-18T06:26:42.206Z,-3.10
2023-01-18T06:29:12.831Z,-3.10
2023-01-18T06:31:41.579Z,-3.10
2023-01-18T06:34:10.711Z,-3.10
2023-01-18T06:36:41.169Z,-3.10
2023-01-18T06:39:09.486Z,-3.10
2023-01-18T06:41:38.041Z,-3.10
2023-01-18T06:44:10.321Z,-3.10
2023-01-18T06:46:40.861Z,-3.10
2023-01-18T06:49:11.196Z,-3.00
2023-01-18T06:51:41.089Z,-3.00
2023-01-18T06:54:10.779Z,-3.00
2023-01-18T06:56:40.009Z,-3.00
2023-01-18T06:59:09.036Z,-3.00
2023-01-18T07:01:37.858Z,-2.90
2023-01-18T07:04:08.946Z,-2.90
2023-01-18T07:06:38.043Z,-3.00
2023-01-18T07:09:07.873Z,-3.00
2023-01-18T07:11:37.105Z,-3.00
2023-01-18T07:14:06.646Z,-3.10
2023-01-18T07:16:35.275Z,-3.00
2023-01-18T07:19:05.387Z,-3.10
2023-01-18T07:21:36.579Z,-3.10
2023-01-18T07:24:05.359Z,-3.10
2023-01-18T07:26:35.760Z,-3.10
2023-01-18T07:29:04.235Z,-3.00
2023-01-18T07:31:32.881Z,-3.00
2023-01-18T07:34:01.200Z,-3.00
2023-01-18T07:36:29.957Z,-3.00
2023-01-18T07:39:01.623Z,-3.00
2023-01-18T07:41:31.091Z,-3.00
2023-01-18T07:43:59.862Z,-3.10
2023-01-18T07:46:28.449Z,-3.10
2023-01-18T07:48:57.320Z,-3.10
2023-01-18T07:51:25.637Z,-3.10
2023-01-18T07:53:55.790Z,-3.20
2023-01-18T07:56:27.281Z,-3.20
2023-01-18T07:58:56.460Z,-3.20
2023-01-18T08:01:25.690Z,-3.20
2023-01-18T08:03:54.931Z,-3.20
2023-01-18T08:06:27.364Z,-3.20
2023-01-18T08:08:57.288Z,-3.20
2023-01-18T08:11:30.152Z,-3.10
2023-01-18T08:13:58.614Z,-3.10
2023-01-18T08:16:27.299Z,-3.20
2023-01-18T08:18:55.568Z,-3.10
2023-01-18T08:21:24.688Z,-3.10
2023-01-18T08:23:55.121Z,-3.20
2023-01-18T08:26:24.461Z,-3.20
2023-01-18T08:28:54.754Z,-3.10
2023-01-18T08:31:24.009Z,-3.10
2023-01-18T08:33:53.000Z,-3.00
2023-01-18T08:36:23.341Z,-3.00
2023-01-18T08:38:55.316Z,-3.00
2023-01-18T08:41:28.538Z,-3.00
2023-01-18T08:43:59.978Z,-2.90
2023-01-18T08:46:29.225Z,-2.90
2023-01-18T08:49:00.491Z,-2.90
2023-01-18T08:51:29.249Z,-2.80
2023-01-18T08:53:58.800Z,-2.80
2023-01-18T08:56:29.336Z,-2.70
2023-01-18T08:59:00.223Z,-2.60
2023-01-18T09:01:28.880Z,-2.60
2023-01-18T09:03:58.694Z,-2.60
2023-01-18T09:06:32.086Z,-2.50
2023-01-18T09:09:03.280Z,-2.50
2023-01-18T09:11:31.894Z,-2.40
2023-01-18T09:14:04.466Z,-2.30
2023-01-18T09:16:36.073Z,-2.30
2023-01-18T09:19:06.620Z,-2.20
2023-01-18T09:21:35.736Z,-2.10
2023-01-18T09:24:04.364Z,-2.00
2023-01-18T09:26:32.843Z,-1.90
2023-01-18T09:29:03.478Z,-1.80
2023-01-18T09:31:31.839Z,-1.80
2023-01-18T09:34:18.076Z,-1.70
2023-01-18T09:36:48.015Z,-1.60
2023-01-18T09:39:17.059Z,-1.60
2023-01-18T09:41:52.456Z,-1.60
2023-01-18T09:44:29.685Z,-1.50
2023-01-18T09:47:01.793Z,-1.40
2023-01-18T09:49:38.113Z,-1.30
2023-01-18T09:52:21.980Z,-1.30
2023-01-18T09:54:57.726Z,-1.10
2023-01-18T09:57:46.829Z,-1.00
2023-01-18T10:00:26.726Z,-0.90
2023-01-18T10:03:00.877Z,-0.80
2023-01-18T10:05:33.700Z,-0.70
2023-01-18T10:08:08.444Z,-0.60
2023-01-18T10:10:41.517Z,-0.50
2023-01-18T10:13:39.690Z,-0.30
2023-01-18T10:16:15.734Z,-0.20
2023-01-18T10:18:48.381Z,0.00
2023-01-18T10:21:22.403Z,0.10
2023-01-18T10:24:05.556Z,0.20
2023-01-18T10:26:40.594Z,0.30
2023-01-18T10:29:14.596Z,0.40
2023-01-18T10:31:55.801Z,0.50
2023-01-18T10:34:31.636Z,0.60
2023-01-18T10:37:12.674Z,0.70
2023-01-18T10:39:45.308Z,0.80
2023-01-18T10:42:20.674Z,0.80
2023-01-18T10:44:49.231Z,0.90
2023-01-18T10:47:21.045Z,1.00
2023-01-18T10:49:51.956Z,1.00
2023-01-18T10:52:32.742Z,1.10
2023-01-18T10:55:03.282Z,1.20
2023-01-18T10:57:37.001Z,1.20
2023-01-18T11:00:12.675Z,1.40
2023-01-18T11:02:47.065Z,1.50
2023-01-18T11:05:23.425Z,1.50
2023-01-18T11:08:12.771Z,1.60
2023-01-18T11:10:43.874Z,1.80
2023-01-18T11:13:26.972Z,1.90
2023-01-18T11:16:10.717Z,2.10
2023-01-18T11:18:56.026Z,2.10
2023-01-18T11:21:25.207Z,2.20
2023-01-18T11:23:55.530Z,2.20
2023-01-18T11:26:26.257Z,2.20
2023-01-18T11:29:01.694Z,2.20
2023-01-18T11:31:33.498Z,2.20
2023-01-18T11:34:07.829Z,2.20
2023-01-18T11:36:39.016Z,2.40
2023-01-18T11:39:27.967Z,2.50
2023-01-18T11:42:14.849Z,2.50
2023-01-18T11:44:48.519Z,2.50
2023-01-18T11:47:24.356Z,2.60
2023-01-18T11:50:05.610Z,2.50
2023-01-18T11:52:48.063Z,2.60
2023-01-18T11:55:26.745Z,2.60
2023-01-18T11:57:55.586Z,2.70
2023-01-18T12:00:28.190Z,2.70
2023-01-18T12:03:14.045Z,2.80
2023-01-18T12:05:53.152Z,2.90
2023-01-18T12:08:44.797Z,2.80
2023-01-18T12:11:33.549Z,2.70
2023-01-18T12:14:04.135Z,2.80
2023-01-18T12:16:56.464Z,2.70
2023-01-18T12:19:39.326Z,2.80
2023-01-18T12:22:37.179Z,2.80
2023-01-18T12:25:21.570Z,2.80
2023-01-18T12:27:59.907Z,2.70
2023-01-18T12:30:44.720Z,2.80
2023-01-18T12:33:43.429Z,2.70
2023-01-18T12:36:35.803Z,2.70
2023-01-18T12:39:14.926Z,2.90
2023-01-18T12:41:52.590Z,2.90
2023-01-18T12:44:39.556Z,2.90
2023-01-18T12:47:20.572Z,2.90
2023-01-18T12:49:53.584Z,2.90
2023-01-18T12:52:23.485Z,3.10
2023-01-18T12:55:00.847Z,3.20
2023-01-18T12:57:31.445Z,3.20
2023-01-18T13:00:06.289Z,3.30
2023-01-18T13:02:39.373Z,3.50
2023-01-18T13:05:19.805Z,3.60
2023-01-18T13:07:54.947Z,3.80
2023-01-18T13:10:27.682Z,3.90
2023-01-18T13:12:58.755Z,4.10
2023-01-18T13:15:38.827Z,4.30
2023-01-18T13:18:18.006Z,4.40
2023-01-18T13:21:03.362Z,4.40
2023-01-18T13:23:39.817Z,4.40
2023-01-18T13:26:22.195Z,4.40
2023-01-18T13:29:08.076Z,4.70
2023-01-18T13:31:36.861Z,4.80
2023-01-18T13:34:05.652Z,5.00
2023-01-18T13:36:47.151Z,5.20
2023-01-18T13:39:17.577Z,5.10
2023-01-18T13:42:10.046Z,5.10
2023-01-18T13:44:42.995Z,5.10
2023-01-18T13:47:45.707Z,5.20
2023-01-18T13:50:47.334Z,5.30
2023-01-18T13:53:31.570Z,5.40
2023-01-18T13:56:28.818Z,5.30
2023-01-18T13:59:19.565Z,5.20
2023-01-18T14:01:50.200Z,5.20
2023-01-18T14:04:34.360Z,5.10
2023-01-18T14:07:06.034Z,5.20
2023-01-18T14:09:39.928Z,5.10
2023-01-18T14:12:09.311Z,5.00
2023-01-18T14:14:55.820Z,4.90
2023-01-18T14:17:25.647Z,4.80
2023-01-18T14:20:23.709Z,4.70
2023-01-18T14:23:09.281Z,4.70
2023-01-18T14:25:55.864Z,4.70
2023-01-18T14:28:29.112Z,4.70
2023-01-18T14:31:02.164Z,4.70
2023-01-18T14:33:35.027Z,4.60
2023-01-18T14:36:05.893Z,4.50
2023-01-18T14:38:34.726Z,4.40
2023-01-18T14:41:07.584Z,4.40
2023-01-18T14:43:38.613Z,4.30
2023-01-18T14:46:15.975Z,4.20
2023-01-18T14:48:51.603Z,4.20
2023-01-18T14:51:24.693Z,4.10
2023-01-18T14:53:57.868Z,4.10
2023-01-18T14:56:27.437Z,4.00
2023-01-18T14:58:57.457Z,3.90
2023-01-18T15:01:31.908Z,3.90
2023-01-18T15:04:03.770Z,3.80
2023-01-18T15:06:36.937Z,3.70
2023-01-18T15:09:08.077Z,3.70
2023-01-18T15:11:39.272Z,3.60
2023-01-18T15:14:11.935Z,3.50
2023-01-18T15:16:43.928Z,3.40
2023-01-18T15:19:19.340Z,3.30
2023-01-18T15:21:49.112Z,3.10
2023-01-18T15:24:21.764Z,3.10
2023-01-18T15:26:54.567Z,2.90
2023-01-18T15:29:26.249Z,2.70
2023-01-18T15:31:58.998Z,2.40
2023-01-18T15:34:31.270Z,2.20
2023-01-18T15:37:02.988Z,2.00
2023-01-18T15:39:32.521Z,1.90
2023-01-18T15:42:08.324Z,1.80
2023-01-18T15:44:43.146Z,1.80
2023-01-18T15:47:28.927Z,1.70
2023-01-18T15:49:59.641Z,1.60
2023-01-18T15:52:43.129Z,1.60
2023-01-18T15:55:22.745Z,1.50
2023-01-18T15:58:09.056Z,1.50
2023-01-18T16:00:41.221Z,1.50
2023-01-18T16:03:20.301Z,1.50
2023-01-18T16:06:00.049Z,1.50
2023-01-18T16:08:45.131Z,1.50
2023-01-18T16:11:30.930Z,1.40
2023-01-18T16:14:00.783Z,1.30
2023-01-18T16:16:30.280Z,1.20
2023-01-18T16:19:15.569Z,1.20
2023-01-18T16:21:48.838Z,1.10
2023-01-18T16:24:28.654Z,1.10
2023-01-18T16:26:59.855Z,1.00
2023-01-18T16:29:29.088Z,0.90
2023-01-18T16:32:31.318Z,0.90
2023-01-18T16:35:06.310Z,0.90
2023-01-18T16:37:34.896Z,0.80
2023-01-18T16:40:03.607Z,0.90
2023-01-18T16:42:38.459Z,0.80
2023-01-18T16:45:15.394Z,0.80
2023-01-18T16:47:43.756Z,0.80
2023-01-18T16:50:18.052Z,0.80
2023-01-18T16:52:47.002Z,0.70
2023-01-18T16:55:16.784Z,0.80
2023-01-18T16:57:46.183Z,0.80
2023-01-18T17:00:19.480Z,0.80
2023-01-18T17:02:48.764Z,0.80
2023-01-18T17:05:20.720Z,0.80
2023-01-18T17:07:51.681Z,0.80
2023-01-18T17:10:24.467Z,0.80
2023-01-18T17:12:52.874Z,0.80
2023-01-18T17:15:21.701Z,0.90
2023-01-18T17:17:51.247Z,0.80
2023-01-18T17:20:24.879Z,0.80
2023-01-18T17:22:55.711Z,0.80
2023-01-18T17:25:25.070Z,0.70
2023-01-18T17:27:56.490Z,0.70
2023-01-18T17:30:25.188Z,0.70
2023-01-18T17:32:55.141Z,0.60
2023-01-18T17:35:30.222Z,0.60
2023-01-18T17:38:05.522Z,0.50
2023-01-18T17:40:43.873Z,0.50
2023-01-18T17:43:17.437Z,0.40
2023-01-18T17:46:00.553Z,0.40
2023-01-18T17:48:30.313Z,0.20
2023-01-18T17:51:01.543Z,0.00
2023-01-18T17:53:30.275Z,0.00
2023-01-18T17:55:58.833Z,-0.10
2023-01-18T17:58:27.816Z,-0.20
2023-01-18T18:00:56.278Z,-0.20
2023-01-18T18:03:24.622Z,-0.30
2023-01-18T18:05:58.858Z,-0.30
2023-01-18T18:08:31.270Z,-0.30
2023-01-18T18:11:01.819Z,-0.30
2023-01-18T18:13:30.723Z,-0.30
2023-01-18T18:16:01.262Z,-0.30
2023-01-18T18:18:31.199Z,-0.30
2023-01-18T18:21:01.423Z,-0.40
2023-01-18T18:23:31.822Z,-0.40
2023-01-18T18:26:04.763Z,-0.40
2023-01-18T18:28:35.167Z,-0.30
2023-01-18T18:31:04.495Z,-0.30
2023-01-18T18:33:34.601Z,-0.30
2023-01-18T18:36:03.549Z,-0.40
2023-01-18T18:38:34.239Z,-0.30
2023-01-18T18:41:05.079Z,-0.30
2023-01-18T18:43:34.816Z,-0.30
2023-01-18T18:46:03.642Z,-0.30
2023-01-18T18:48:32.103Z,-0.30
2023-01-18T18:51:00.583Z,-0.30
2023-01-18T18:53:37.463Z,-0.20
2023-01-18T18:56:10.668Z,-0.20
2023-01-18T18:58:39.670Z,-0.20
2023-01-18T19:01:18.092Z,-0.20
2023-01-18T19:03:46.984Z,-0.20
2023-01-18T19:06:15.519Z,-0.20
2023-01-18T19:08:44.270Z,-0.20
2023-01-18T19:11:15.554Z,-0.30
2023-01-18T19:13:48.537Z,-0.30
2023-01-18T19:16:20.117Z,-0.30
2023-01-18T19:18:48.793Z,-0.20
2023-01-18T19:21:18.400Z,-0.20
2023-01-18T19:23:47.835Z,-0.30
2023-01-18T19:26:18.665Z,-0.30
2023-01-18T19:28:47.578Z,-0.20
2023-01-18T19:31:16.100Z,-0.30
2023-01-18T19:33:45.001Z,-0.40
2023-01-18T19:36:14.978Z,-0.40
2023-01-18T19:38:46.581Z,-0.40
2023-01-18T19:41:18.706Z,-0.40
2023-01-18T19:43:50.179Z,-0.50
2023-01-18T19:46:20.210Z,-0.40
2023-01-18T19:48:49.210Z,-0.50
2023-01-18T19:51:23.064Z,-0.40
2023-01-18T19:53:55.738Z,-0.40
2023-01-18T19:56:28.232Z,-0.40
2023-01-18T19:58:56.792Z,-0.50
2023-01-18T20:01:36.384Z,-0.50
2023-01-18T20:04:07.268Z,-0.50
2023-01-18T20:06:37.689Z,-0.50
2023-01-18T20:09:18.599Z,-0.50
2023-01-18T20:11:50.193Z,-0.40
2023-01-18T20:14:19.636Z,-0.40
2023-01-18T20:16:48.499Z,-0.40
2023-01-18T20:19:19.589Z,-0.40
2023-01-18T20:21:49.693Z,-0.50
2023-01-18T20:24:18.848Z,-0.50
2023-01-18T20:26:51.146Z,-0.60
2023-01-18T20:29:21.295Z,-0.60
2023-01-18T20:31:50.367Z,-0.70
2023-01-18T20:34:18.959Z,-0.80
2023-01-18T20:36:50.209Z,-1.10
2023-01-18T20:39:19.295Z,-1.20
2023-01-18T20:41:50.548Z,-1.20
2023-01-18T20:44:20.818Z,-1.30
2023-01-18T20:46:51.216Z,-1.40
2023-01-18T20:49:24.529Z,-1.50
2023-01-18T20:51:56.269Z,-1.40
2023-01-18T20:54:34.189Z,-1.50
2023-01-18T20:57:05.396Z,-1.60
2023-01-18T20:59:34.078Z,-1.60
2023-01-18T21:02:03.453Z,-1.70
2023-01-18T21:04:31.950Z,-1.80
2023-01-18T21:07:00.404Z,-1.80
2023-01-18T21:09:29.085Z,-1.90
2023-01-18T21:11:58.522Z,-2.00
2023-01-18T21:14:28.401Z,-2.00
2023-01-18T21:16:57.381Z,-2.10
2023-01-18T21:19:27.615Z,-2.20
2023-01-18T21:21:55.989Z,-2.30
2023-01-18T21:24:24.917Z,-2.30
2023-01-18T21:26:53.506Z,-2.40
2023-01-18T21:29:22.246Z,-2.30
2023-01-18T21:31:54.668Z,-2.10
2023-01-18T21:34:24.066Z,-1.90
2023-01-18T21:36:53.133Z,-1.90
2023-01-18T21:39:25.887Z,-1.80
2023-01-18T21:42:12.553Z,-1.80
2023-01-18T21:45:00.388Z,-1.90
2023-01-18T21:47:30.259Z,-1.90
2023-01-18T21:50:17.947Z,-2.00
2023-01-18T21:53:04.671Z,-2.10
2023-01-18T21:55:33.311Z,-2.20
2023-01-18T21:58:19.458Z,-2.30
2023-01-18T22:00:47.922Z,-2.40
2023-01-18T22:03:19.144Z,-2.40
2023-01-18T22:05:48.178Z,-2.30
2023-01-18T22:08:18.578Z,-2.30
2023-01-18T22:10:48.118Z,-2.20
2023-01-18T22:13:16.343Z,-2.20
2023-01-18T22:15:44.534Z,-2.20
2023-01-18T22:18:13.139Z,-2.10
2023-01-18T22:20:42.931Z,-2.20
2023-01-18T22:23:12.019Z,-2.10
2023-01-18T22:25:40.502Z,-2.20
2023-01-18T22:28:09.922Z,-2.10
2023-01-18T22:30:38.632Z,-2.00
2023-01-18T22:33:08.071Z,-2.00
2023-01-18T22:35:37.408Z,-2.00
2023-01-18T22:38:09.859Z,-1.90
2023-01-18T22:40:40.802Z,-1.90
2023-01-18T22:43:09.199Z,-1.80
2023-01-18T22:45:37.401Z,-1.80
2023-01-18T22:48:06.195Z,-1.60
2023-01-18T22:50:34.522Z,-1.30
2023-01-18T22:53:03.171Z,-1.20
2023-01-18T22:55:34.547Z,-1.10
2023-01-18T22:58:05.542Z,-1.00
2023-01-18T23:00:34.199Z,-0.90
2023-01-18T23:03:02.717Z,-0.90
2023-01-18T23:05:31.211Z,-0.80
2023-01-18T23:08:00.247Z,-0.70
2023-01-18T23:10:28.724Z,-0.70
2023-01-18T23:13:00.159Z,-0.70
2023-01-18T23:15:46.343Z,-0.70
2023-01-18T23:18:16.411Z,-0.70
2023-01-18T23:20:45.090Z,-0.70
2023-01-18T23:23:13.739Z,-0.60
2023-01-18T23:25:42.325Z,-0.60
2023-01-18T23:28:12.266Z,-0.60
2023-01-18T23:30:40.848Z,-0.60
2023-01-18T23:33:09.331Z,-0.70
2023-01-18T23:35:38.722Z,-0.70
2023-01-18T23:38:07.530Z,-0.80
2023-01-18T23:40:54.982Z,-0.80
2023-01-18T23:43:43.429Z,-0.80
2023-01-18T23:46:29.883Z,-0.80
2023-01-18T23:49:17.908Z,-0.80
2023-01-18T23:52:03.398Z,-0.70
2023-01-18T23:54:34.222Z,-0.70
2023-01-18T23:57:04.563Z,-0.70
2023-01-18T23:59:36.869Z,-0.60
